sensor_id;sensor_type;location;lat;lon;timestamp;pressure;altitude;pressure_sealevel;temperature;humidity
11017;BME280;54687;50.800;6.772;2023-04-01T00:01:15;61038.41;;;-144.06;57.13
11017;BME280;54687;50.800;6.772;2023-04-01T00:03:42;61074.03;;;-144.06;56.82
11017;BME280;54687;50.800;6.772;2023-04-01T00:06:09;61046.78;;;-144.06;57.02
11017;BME280;54687;50.800;6.772;2023-04-01T00:08:37;61042.59;;;-144.06;57.15
11017;BME280;54687;50.800;6.772;2023-04-01T00:11:04;61063.56;;;-144.06;57.12
11017;BME280;54687;50.800;6.772;2023-04-01T00:13:30;61046.78;;;-144.06;57.04
11017;BME280;54687;50.800;6.772;2023-04-01T00:15:59;61065.66;;;-144.06;57.29
11017;BME280;54687;50.800;6.772;2023-04-01T00:18:26;61019.53;;;-144.06;56.99
11017;BME280;54687;50.800;6.772;2023-04-01T00:20:53;61032.13;;;-144.06;57.18
11017;BME280;54687;50.800;6.772;2023-04-01T00:23:20;61053.09;;;-144.06;57.24
11017;BME280;54687;50.800;6.772;2023-04-01T00:25:47;61057.28;;;-144.06;57.04
11017;BME280;54687;50.800;6.772;2023-04-01T00:28:15;61061.47;;;-144.06;57.02
11017;BME280;54687;50.800;6.772;2023-04-01T00:30:41;61046.78;;;-144.06;57.04
11017;BME280;54687;50.800;6.772;2023-04-01T00:33:09;61055.19;;;-144.06;57.01
11017;BME280;54687;50.800;6.772;2023-04-01T00:35:36;61048.88;;;-144.06;57.29
11017;BME280;54687;50.800;6.772;2023-04-01T00:38:03;61069.84;;;-144.06;57.24
11017;BME280;54687;50.800;6.772;2023-04-01T00:40:32;61048.88;;;-144.06;57.29
11017;BME280;54687;50.800;6.772;2023-04-01T00:43:00;61000.69;;;-144.06;57.40
11017;BME280;54687;50.800;6.772;2023-04-01T00:45:32;61069.84;;;-144.06;57.40
11017;BME280;54687;50.800;6.772;2023-04-01T00:48:02;61059.38;;;-144.06;57.37
11017;BME280;54687;50.800;6.772;2023-04-01T00:50:33;61051.00;;;-144.06;57.17
11017;BME280;54687;50.800;6.772;2023-04-01T00:53:02;61027.94;;;-144.06;57.34
11017;BME280;54687;50.800;6.772;2023-04-01T00:55:32;61059.38;;;-144.06;57.32
11017;BME280;54687;50.800;6.772;2023-04-01T00:58:02;61063.56;;;-144.06;57.41
11017;BME280;54687;50.800;6.772;2023-04-01T01:00:30;61076.13;;;-144.06;57.46
11017;BME280;54687;50.800;6.772;2023-04-01T01:02:56;61055.19;;;-144.06;57.27
11017;BME280;54687;50.800;6.772;2023-04-01T01:05:29;61069.84;;;-144.06;57.34
11017;BME280;54687;50.800;6.772;2023-04-01T01:08:03;61067.75;;;-144.06;
11017;BME280;54687;50.800;6.772;2023-04-01T01:10:37;61042.59;;;-144.06;57.34
11017;BME280;54687;50.800;6.772;2023-04-01T01:13:10;61067.75;;;-144.06;57.44
11017;BME280;54687;50.800;6.772;2023-04-01T01:15:41;61038.41;;;-144.06;57.40
11017;BME280;54687;50.800;6.772;2023-04-01T01:18:18;61048.88;;;-144.06;57.82
11017;BME280;54687;50.800;6.772;2023-04-01T01:21:14;61009.06;;;-144.06;57.59
11017;BME280;54687;50.800;6.772;2023-04-01T01:24:25;61032.13;;;-144.06;57.68
11017;BME280;54687;50.800;6.772;2023-04-01T01:27:03;61048.88;;;-144.06;57.63
11017;BME280;54687;50.800;6.772;2023-04-01T01:29:42;61011.16;;;-144.06;57.34
11017;BME280;54687;50.800;6.772;2023-04-01T01:32:21;61051.00;;;-144.06;57.21
11017;BME280;54687;50.800;6.772;2023-04-01T01:37:27;61040.50;;;-144.06;57.28
11017;BME280;54687;50.800;6.772;2023-04-01T01:39:58;61040.50;;;-144.06;57.28
11017;BME280;54687;50.800;6.772;2023-04-01T01:42:27;61059.38;;;-144.06;57.30
11017;BME280;54687;50.800;6.772;2023-04-01T01:44:56;61053.09;;;-144.06;57.05
11017;BME280;54687;50.800;6.772;2023-04-01T01:47:25;61042.59;;;-144.06;57.25
11017;BME280;54687;50.800;6.772;2023-04-01T01:49:54;61074.03;;;-144.06;57.57
11017;BME280;54687;50.800;6.772;2023-04-01T01:52:22;61053.09;;;-144.06;57.54
11017;BME280;54687;50.800;6.772;2023-04-01T01:54:53;61025.84;;;-144.06;57.91
11017;BME280;54687;50.800;6.772;2023-04-01T01:57:23;61067.75;;;-144.06;57.76
11017;BME280;54687;50.800;6.772;2023-04-01T01:59:51;61030.03;;;-144.06;58.08
11017;BME280;54687;50.800;6.772;2023-04-01T02:02:19;61030.03;;;-144.06;57.98
11017;BME280;54687;50.800;6.772;2023-04-01T02:04:46;61046.78;;;-144.06;58.03
11017;BME280;54687;50.800;6.772;2023-04-01T02:07:16;61061.47;;;-144.06;58.51
11017;BME280;54687;50.800;6.772;2023-04-01T02:09:44;61080.34;;;-144.06;58.93
11017;BME280;54687;50.800;6.772;2023-04-01T02:12:14;61034.22;;;-144.06;59.30
11017;BME280;54687;50.800;6.772;2023-04-01T02:14:46;61057.28;;;-144.06;59.60
11017;BME280;54687;50.800;6.772;2023-04-01T02:17:17;61025.84;;;-144.06;59.28
11017;BME280;54687;50.800;6.772;2023-04-01T02:19:47;61078.25;;;-144.06;59.30
11017;BME280;54687;50.800;6.772;2023-04-01T02:22:18;61046.78;;;-144.06;59.62
11017;BME280;54687;50.800;6.772;2023-04-01T02:24:47;61027.94;;;-144.06;59.78
11017;BME280;54687;50.800;6.772;2023-04-01T02:27:17;61069.84;;;-144.06;59.90
11017;BME280;54687;50.800;6.772;2023-04-01T02:29:43;61090.81;;;-144.06;60.09
11017;BME280;54687;50.800;6.772;2023-04-01T02:32:10;61092.91;;;-144.06;59.77
11017;BME280;54687;50.800;6.772;2023-04-01T02:34:37;61074.03;;;-144.06;60.16
11017;BME280;54687;50.800;6.772;2023-04-01T02:37:04;61080.34;;;-144.06;60.11
11017;BME280;54687;50.800;6.772;2023-04-01T02:39:30;61046.78;;;-144.06;60.22
11017;BME280;54687;50.800;6.772;2023-04-01T02:41:57;61080.34;;;-144.06;60.36
11017;BME280;54687;50.800;6.772;2023-04-01T02:44:25;61059.38;;;-144.06;60.59
11017;BME280;54687;50.800;6.772;2023-04-01T02:46:51;61101.28;;;-144.06;60.15
11017;BME280;54687;50.800;6.772;2023-04-01T02:49:18;61092.91;;;-144.06;60.21
11017;BME280;54687;50.800;6.772;2023-04-01T02:51:45;61025.84;;;-144.06;59.75
11017;BME280;54687;50.800;6.772;2023-04-01T02:54:11;61063.56;;;-144.06;59.95
11017;BME280;54687;50.800;6.772;2023-04-01T02:56:38;61053.09;;;-144.06;59.83
11017;BME280;54687;50.800;6.772;2023-04-01T02:59:04;61063.56;;;-144.06;60.06
11017;BME280;54687;50.800;6.772;2023-04-01T03:01:32;61063.56;;;-144.06;59.65
11017;BME280;54687;50.800;6.772;2023-04-01T03:03:59;61084.53;;;-144.06;59.57
11017;BME280;54687;50.800;6.772;2023-04-01T03:06:25;61088.72;;;-144.06;59.01
11017;BME280;54687;50.800;6.772;2023-04-01T03:08:52;61040.50;;;-144.06;58.96
11017;BME280;54687;50.800;6.772;2023-04-01T03:11:19;61053.09;;;-144.06;59.13
11017;BME280;54687;50.800;6.772;2023-04-01T03:13:46;61074.03;;;-144.06;58.88
11017;BME280;54687;50.800;6.772;2023-04-01T03:16:14;61076.13;;;-144.06;58.79
11017;BME280;54687;50.800;6.772;2023-04-01T03:18:41;61051.00;;;-144.06;58.96
11017;BME280;54687;50.800;6.772;2023-04-01T03:21:13;61051.00;;;-144.06;58.86
11017;BME280;54687;50.800;6.772;2023-04-01T03:23:40;61080.34;;;-144.06;58.68
11017;BME280;54687;50.800;6.772;2023-04-01T03:26:07;61063.56;;;-144.06;58.64
11017;BME280;54687;50.800;6.772;2023-04-01T03:28:34;61040.50;;;-144.06;58.71
11017;BME280;54687;50.800;6.772;2023-04-01T03:31:01;61004.88;;;-144.06;58.43
11017;BME280;54687;50.800;6.772;2023-04-01T03:33:27;61030.03;;;-144.06;58.70
11017;BME280;54687;50.800;6.772;2023-04-01T03:35:55;61059.38;;;-144.06;58.49
11017;BME280;54687;50.800;6.772;2023-04-01T03:38:22;61044.69;;;-144.06;58.52
11017;BME280;54687;50.800;6.772;2023-04-01T03:40:48;61025.84;;;-144.06;58.62
11017;BME280;54687;50.800;6.772;2023-04-01T03:43:15;61067.75;;;-144.06;58.31
11017;BME280;54687;50.800;6.772;2023-04-01T03:45:46;61063.56;;;-144.06;58.41
11017;BME280;54687;50.800;6.772;2023-04-01T03:48:13;61071.94;;;-144.06;58.65
11017;BME280;54687;50.800;6.772;2023-04-01T03:50:40;61074.03;;;-144.06;58.62
11017;BME280;54687;50.800;6.772;2023-04-01T03:53:09;61088.72;;;-144.06;58.80
11017;BME280;54687;50.800;6.772;2023-04-01T03:55:36;61057.28;;;-144.06;59.06
11017;BME280;54687;50.800;6.772;2023-04-01T03:58:03;61084.53;;;-144.06;59.12
11017;BME280;54687;50.800;6.772;2023-04-01T04:00:30;61046.78;;;-144.06;59.21
11017;BME280;54687;50.800;6.772;2023-04-01T04:02:56;61038.41;;;-144.06;59.26
11017;BME280;54687;50.800;6.772;2023-04-01T04:05:25;61021.63;;;-144.06;59.26
11017;BME280;54687;50.800;6.772;2023-04-01T04:07:53;61055.19;;;-144.06;59.47
11017;BME280;54687;50.800;6.772;2023-04-01T04:10:22;61051.00;;;-144.06;59.42
11017;BME280;54687;50.800;6.772;2023-04-01T04:12:50;61086.63;;;-144.06;59.52
11017;BME280;54687;50.800;6.772;2023-04-01T04:15:17;61076.13;;;-144.06;59.73
11017;BME280;54687;50.800;6.772;2023-04-01T04:17:44;61051.00;;;-144.06;59.36
11017;BME280;54687;50.800;6.772;2023-04-01T04:20:11;61080.34;;;-144.06;59.74
11017;BME280;54687;50.800;6.772;2023-04-01T04:22:38;61080.34;;;-144.06;59.48
11017;BME280;54687;50.800;6.772;2023-04-01T04:25:05;61063.56;;;-144.06;59.85
11017;BME280;54687;50.800;6.772;2023-04-01T04:27:33;61082.44;;;-144.06;59.82
11017;BME280;54687;50.800;6.772;2023-04-01T04:30:00;61055.19;;;-144.06;59.76
11017;BME280;54687;50.800;6.772;2023-04-01T04:32:27;61095.00;;;-144.06;60.01
11017;BME280;54687;50.800;6.772;2023-04-01T04:34:53;61065.66;;;-144.06;60.16
11017;BME280;54687;50.800;6.772;2023-04-01T04:37:20;61032.13;;;-144.06;59.98
11017;BME280;54687;50.800;6.772;2023-04-01T04:39:46;61092.91;;;-144.06;60.18
11017;BME280;54687;50.800;6.772;2023-04-01T04:42:13;61080.34;;;-144.06;59.88
11017;BME280;54687;50.800;6.772;2023-04-01T04:44:41;61027.94;;;-144.06;59.93
11017;BME280;54687;50.800;6.772;2023-04-01T04:47:07;61063.56;;;-144.06;59.81
11017;BME280;54687;50.800;6.772;2023-04-01T04:49:34;61109.69;;;-144.06;60.01
11017;BME280;54687;50.800;6.772;2023-04-01T04:52:00;61063.56;;;-144.06;59.96
11017;BME280;54687;50.800;6.772;2023-04-01T04:54:27;61030.03;;;-144.06;59.84
11017;BME280;54687;50.800;6.772;2023-04-01T04:56:53;61071.94;;;-144.06;59.96
11017;BME280;54687;50.800;6.772;2023-04-01T04:59:20;61055.19;;;-144.06;59.69
11017;BME280;54687;50.800;6.772;2023-04-01T05:01:48;61059.38;;;-144.06;59.81
11017;BME280;54687;50.800;6.772;2023-04-01T05:04:15;61046.78;;;-144.06;59.83
11017;BME280;54687;50.800;6.772;2023-04-01T05:06:43;61076.13;;;-144.06;59.76
11017;BME280;54687;50.800;6.772;2023-04-01T05:09:09;61076.13;;;-144.06;60.13
11017;BME280;54687;50.800;6.772;2023-04-01T05:11:36;61046.78;;;-144.06;59.84
11017;BME280;54687;50.800;6.772;2023-04-01T05:14:03;61071.94;;;-144.06;60.14
11017;BME280;54687;50.800;6.772;2023-04-01T05:16:29;61040.50;;;-144.06;60.28
11017;BME280;54687;50.800;6.772;2023-04-01T05:18:58;61076.13;;;-144.06;60.90
11017;BME280;54687;50.800;6.772;2023-04-01T05:21:25;61038.41;;;-144.06;60.80
11017;BME280;54687;50.800;6.772;2023-04-01T05:23:51;61051.00;;;-144.06;61.12
11017;BME280;54687;50.800;6.772;2023-04-01T05:26:18;61103.38;;;-144.06;60.99
11017;BME280;54687;50.800;6.772;2023-04-01T05:28:44;61051.00;;;-144.06;61.02
11017;BME280;54687;50.800;6.772;2023-04-01T05:31:11;61067.75;;;-144.06;60.62
11017;BME280;54687;50.800;6.772;2023-04-01T05:33:37;61019.53;;;-144.06;60.75
11017;BME280;54687;50.800;6.772;2023-04-01T05:36:10;61061.47;;;-144.06;60.67
11017;BME280;54687;50.800;6.772;2023-04-01T05:38:39;61080.34;;;-144.06;60.82
11017;BME280;54687;50.800;6.772;2023-04-01T05:41:07;61067.75;;;-144.06;60.82
11017;BME280;54687;50.800;6.772;2023-04-01T05:43:35;61046.78;;;-144.06;60.87
11017;BME280;54687;50.800;6.772;2023-04-01T05:46:02;61040.50;;;-144.06;61.04
11017;BME280;54687;50.800;6.772;2023-04-01T05:48:29;61042.59;;;-144.06;61.53
11017;BME280;54687;50.800;6.772;2023-04-01T05:50:55;61055.19;;;-144.06;61.40
11017;BME280;54687;50.800;6.772;2023-04-01T05:53:23;61080.34;;;-144.06;61.92
11017;BME280;54687;50.800;6.772;2023-04-01T05:55:50;61097.09;;;-144.06;61.90
11017;BME280;54687;50.800;6.772;2023-04-01T05:58:16;61080.34;;;-144.06;62.32
11017;BME280;54687;50.800;6.772;2023-04-01T06:00:43;61061.47;;;-144.06;62.23
11017;BME280;54687;50.800;6.772;2023-04-01T06:03:10;61076.13;;;-144.06;62.30
11017;BME280;54687;50.800;6.772;2023-04-01T06:05:39;61030.03;;;-144.06;62.48
11017;BME280;54687;50.800;6.772;2023-04-01T06:08:10;61063.56;;;-144.06;62.55
11017;BME280;54687;50.800;6.772;2023-04-01T06:10:48;61078.25;;;-144.06;62.13
11017;BME280;54687;50.800;6.772;2023-04-01T06:13:26;61105.50;;;-144.06;61.95
11017;BME280;54687;50.800;6.772;2023-04-01T06:16:01;61105.50;;;-144.06;62.10
11017;BME280;54687;50.800;6.772;2023-04-01T06:18:44;61059.38;;;-144.06;61.95
11017;BME280;54687;50.800;6.772;2023-04-01T06:24:30;61055.19;;;-144.06;61.69
11017;BME280;54687;50.800;6.772;2023-04-01T06:27:08;61059.38;;;-144.06;61.83
11017;BME280;54687;50.800;6.772;2023-04-01T06:29:49;61027.94;;;-144.06;61.75
11017;BME280;54687;50.800;6.772;2023-04-01T06:32:48;61063.56;;;-144.06;61.48
11017;BME280;54687;50.800;6.772;2023-04-01T06:35:28;61051.00;;;-144.06;61.54
11017;BME280;54687;50.800;6.772;2023-04-01T06:38:11;61034.22;;;-144.06;61.26
11017;BME280;54687;50.800;6.772;2023-04-01T06:43:53;61065.66;;;-144.06;60.36
11017;BME280;54687;50.800;6.772;2023-04-01T06:46:32;61046.78;;;-144.06;60.04
11017;BME280;54687;50.800;6.772;2023-04-01T06:49:17;61063.56;;;-144.06;59.77
11017;BME280;54687;50.800;6.772;2023-04-01T06:51:52;61059.38;;;-144.06;59.42
11017;BME280;54687;50.800;6.772;2023-04-01T06:54:27;61063.56;;;-144.06;60.98
11017;BME280;54687;50.800;6.772;2023-04-01T06:57:00;61048.88;;;-144.06;60.33
11017;BME280;54687;50.800;6.772;2023-04-01T06:59:32;61055.19;;;-144.06;60.00
11017;BME280;54687;50.800;6.772;2023-04-01T07:02:12;61061.47;;;-144.06;58.78
11017;BME280;54687;50.800;6.772;2023-04-01T07:04:47;61000.69;;;-144.06;58.62
11017;BME280;54687;50.800;6.772;2023-04-01T07:07:19;61030.03;;;-144.06;58.15
11017;BME280;54687;50.800;6.772;2023-04-01T07:09:50;61013.25;;;-144.06;58.00
11017;BME280;54687;50.800;6.772;2023-04-01T07:12:21;61015.34;;;-144.06;58.29
11017;BME280;54687;50.800;6.772;2023-04-01T07:14:54;61046.78;;;-144.06;58.10
11017;BME280;54687;50.800;6.772;2023-04-01T07:17:25;61051.00;;;-144.06;58.27
11017;BME280;54687;50.800;6.772;2023-04-01T07:19:58;60990.19;;;-144.06;58.53
11017;BME280;54687;50.800;6.772;2023-04-01T07:22:32;61019.53;;;-144.06;58.98
11017;BME280;54687;50.800;6.772;2023-04-01T07:25:05;61038.41;;;-144.06;58.63
11017;BME280;54687;50.800;6.772;2023-04-01T07:27:32;61063.56;;;-144.06;58.57
11017;BME280;54687;50.800;6.772;2023-04-01T07:30:00;60975.53;;;-144.06;58.76
11017;BME280;54687;50.800;6.772;2023-04-01T07:32:34;61036.31;;;-144.06;58.45
11017;BME280;54687;50.800;6.772;2023-04-01T07:35:17;61025.84;;;-144.06;58.56
11017;BME280;54687;50.800;6.772;2023-04-01T07:37:58;61051.00;;;-144.06;58.77
11017;BME280;54687;50.800;6.772;2023-04-01T07:40:34;61069.84;;;-144.06;59.28
11017;BME280;54687;50.800;6.772;2023-04-01T07:43:19;61030.03;;;-144.06;58.80
11017;BME280;54687;50.800;6.772;2023-04-01T07:45:58;61013.25;;;-144.06;59.04
11017;BME280;54687;50.800;6.772;2023-04-01T07:48:33;61021.63;;;-144.06;58.65
11017;BME280;54687;50.800;6.772;2023-04-01T07:51:03;61017.44;;;-144.06;58.69
11017;BME280;54687;50.800;6.772;2023-04-01T07:53:38;61046.78;;;-144.06;58.47
11017;BME280;54687;50.800;6.772;2023-04-01T07:56:10;61032.13;;;-144.06;57.95
11017;BME280;54687;50.800;6.772;2023-04-01T07:58:47;61027.94;;;-144.06;57.93
11017;BME280;54687;50.800;6.772;2023-04-01T08:01:23;60975.53;;;-144.06;56.81
11017;BME280;54687;50.800;6.772;2023-04-01T08:04:12;61009.06;;;-144.06;56.75
11017;BME280;54687;50.800;6.772;2023-04-01T08:06:47;61021.63;;;-144.06;56.33
11017;BME280;54687;50.800;6.772;2023-04-01T08:09:24;61004.88;;;-144.06;56.29
11017;BME280;54687;50.800;6.772;2023-04-01T08:12:08;60996.50;;;-144.06;55.97
11017;BME280;54687;50.800;6.772;2023-04-01T08:14:49;61017.44;;;-144.06;56.02
11017;BME280;54687;50.800;6.772;2023-04-01T08:17:26;60996.50;;;-144.06;55.65
11017;BME280;54687;50.800;6.772;2023-04-01T08:20:08;60994.38;;;-144.06;55.28
11017;BME280;54687;50.800;6.772;2023-04-01T08:22:42;60983.91;;;-144.06;55.65
11017;BME280;54687;50.800;6.772;2023-04-01T08:25:16;60996.50;;;-144.06;56.09
11017;BME280;54687;50.800;6.772;2023-04-01T08:27:45;60996.50;;;-144.06;56.10
11017;BME280;54687;50.800;6.772;2023-04-01T08:30:19;61000.69;;;-144.06;57.21
11017;BME280;54687;50.800;6.772;2023-04-01T08:32:50;60983.91;;;-144.06;57.37
11017;BME280;54687;50.800;6.772;2023-04-01T08:35:26;61042.59;;;-144.06;58.70
11017;BME280;54687;50.800;6.772;2023-04-01T08:37:56;61011.16;;;-144.06;58.59
11017;BME280;54687;50.800;6.772;2023-04-01T08:40:45;60990.19;;;-144.06;58.96
11017;BME280;54687;50.800;6.772;2023-04-01T08:46:32;60996.50;;;-144.06;59.01
11017;BME280;54687;50.800;6.772;2023-04-01T08:49:11;61000.69;;;-144.06;60.01
11017;BME280;54687;50.800;6.772;2023-04-01T08:52:13;61017.44;;;-144.06;59.89
11017;BME280;54687;50.800;6.772;2023-04-01T08:54:52;60996.50;;;-144.06;59.89
11017;BME280;54687;50.800;6.772;2023-04-01T08:57:35;60954.56;;;-144.06;60.55
11017;BME280;54687;50.800;6.772;2023-04-01T09:00:15;61011.16;;;-144.06;60.93
11017;BME280;54687;50.800;6.772;2023-04-01T09:03:10;61013.25;;;-144.06;60.87
11017;BME280;54687;50.800;6.772;2023-04-01T09:06:06;60958.75;;;-144.06;60.72
11017;BME280;54687;50.800;6.772;2023-04-01T09:08:51;61004.88;;;-144.06;59.71
11017;BME280;54687;50.800;6.772;2023-04-01T09:11:28;60933.59;;;-144.06;57.94
11017;BME280;54687;50.800;6.772;2023-04-01T09:14:17;61030.03;;;-144.06;57.24
11017;BME280;54687;50.800;6.772;2023-04-01T09:20:02;61000.69;;;-144.06;56.95
11017;BME280;54687;50.800;6.772;2023-04-01T09:22:45;60992.28;;;-144.06;57.58
11017;BME280;54687;50.800;6.772;2023-04-01T09:25:44;60992.28;;;-144.06;56.35
11017;BME280;54687;50.800;6.772;2023-04-01T09:28:18;61009.06;;;-144.06;56.05
11017;BME280;54687;50.800;6.772;2023-04-01T09:31:04;61002.78;;;-144.06;55.84
11017;BME280;54687;50.800;6.772;2023-04-01T09:36:45;60988.09;;;-144.06;54.49
11017;BME280;54687;50.800;6.772;2023-04-01T09:39:38;61004.88;;;-144.06;54.19
11017;BME280;54687;50.800;6.772;2023-04-01T09:42:25;60981.81;;;-144.06;54.18
11017;BME280;54687;50.800;6.772;2023-04-01T09:44:58;60996.50;;;-144.06;54.67
11017;BME280;54687;50.800;6.772;2023-04-01T09:47:42;60977.63;;;-144.06;54.17
11017;BME280;54687;50.800;6.772;2023-04-01T09:53:19;60958.75;;;-144.06;52.96
11017;BME280;54687;50.800;6.772;2023-04-01T09:56:27;60977.63;;;-144.06;52.96
11017;BME280;54687;50.800;6.772;2023-04-01T10:02:09;60983.91;;;-144.06;52.40
11017;BME280;54687;50.800;6.772;2023-04-01T10:08:09;60937.78;;;-144.06;51.99
11017;BME280;54687;50.800;6.772;2023-04-01T10:10:53;60946.19;;;-144.06;51.57
11017;BME280;54687;50.800;6.772;2023-04-01T10:13:49;60916.84;;;-144.06;51.49
11017;BME280;54687;50.800;6.772;2023-04-01T10:16:50;60962.94;;;-144.06;51.17
11017;BME280;54687;50.800;6.772;2023-04-01T10:19:49;60941.97;;;-144.06;50.84
11017;BME280;54687;50.800;6.772;2023-04-01T10:22:42;60967.13;;;-144.06;51.02
11017;BME280;54687;50.800;6.772;2023-04-01T10:25:46;60950.38;;;-144.06;50.57
11017;BME280;54687;50.800;6.772;2023-04-01T10:28:50;60950.38;;;-144.06;50.38
11017;BME280;54687;50.800;6.772;2023-04-01T10:31:45;60950.38;;;-144.06;51.76
11017;BME280;54687;50.800;6.772;2023-04-01T10:34:49;60933.59;;;-144.06;52.33
11017;BME280;54687;50.800;6.772;2023-04-01T10:37:50;61000.69;;;-144.06;52.04
11017;BME280;54687;50.800;6.772;2023-04-01T10:40:38;60952.47;;;-144.06;52.19
11017;BME280;54687;50.800;6.772;2023-04-01T10:46:41;60933.59;;;-144.06;51.92
11017;BME280;54687;50.800;6.772;2023-04-01T10:49:56;60967.13;;;-144.06;51.64
11017;BME280;54687;50.800;6.772;2023-04-01T10:52:54;60933.59;;;-144.06;51.43
11017;BME280;54687;50.800;6.772;2023-04-01T10:55:53;60925.22;;;-144.06;52.41
11017;BME280;54687;50.800;6.772;2023-04-01T10:58:53;60941.97;;;-144.06;52.16
11017;BME280;54687;50.800;6.772;2023-04-01T11:01:53;60990.19;;;-144.06;51.92
11017;BME280;54687;50.800;6.772;2023-04-01T11:07:57;60958.75;;;-144.06;52.45
11017;BME280;54687;50.800;6.772;2023-04-01T11:11:13;60954.56;;;-144.06;53.13
11017;BME280;54687;50.800;6.772;2023-04-01T11:17:27;60925.22;;;-144.06;53.03
11017;BME280;54687;50.800;6.772;2023-04-01T11:23:22;60981.81;;;-144.06;52.42
11017;BME280;54687;50.800;6.772;2023-04-01T11:26:05;60941.97;;;-144.06;52.79
11017;BME280;54687;50.800;6.772;2023-04-01T11:28:47;60967.13;;;-144.06;52.90
11017;BME280;54687;50.800;6.772;2023-04-01T11:31:29;60937.78;;;-144.06;53.43
11017;BME280;54687;50.800;6.772;2023-04-01T11:34:07;60939.88;;;-144.06;53.72
11017;BME280;54687;50.800;6.772;2023-04-01T11:36:47;60950.38;;;-144.06;53.94
11017;BME280;54687;50.800;6.772;2023-04-01T11:39:24;60971.34;;;-144.06;53.62
11017;BME280;54687;50.800;6.772;2023-04-01T11:42:00;60975.53;;;-144.06;52.49
11017;BME280;54687;50.800;6.772;2023-04-01T11:44:31;60929.41;;;-144.06;52.44
11017;BME280;54687;50.800;6.772;2023-04-01T11:47:19;60925.22;;;-144.06;52.46
11017;BME280;54687;50.800;6.772;2023-04-01T11:50:10;60954.56;;;-144.06;52.31
11017;BME280;54687;50.800;6.772;2023-04-01T11:53:01;60979.72;;;-144.06;52.04
11017;BME280;54687;50.800;6.772;2023-04-01T11:55:38;60975.53;;;-144.06;52.89
11017;BME280;54687;50.800;6.772;2023-04-01T12:01:16;60937.78;;;-144.06;51.64
11017;BME280;54687;50.800;6.772;2023-04-01T12:07:01;60962.94;;;-144.06;51.38
11017;BME280;54687;50.800;6.772;2023-04-01T12:09:40;60971.34;;;-144.06;51.69
11017;BME280;54687;50.800;6.772;2023-04-01T12:12:16;61002.78;;;-144.06;51.87
11017;BME280;54687;50.800;6.772;2023-04-01T12:14:54;60988.09;;;-144.06;52.18
11017;BME280;54687;50.800;6.772;2023-04-01T12:17:31;60954.56;;;-144.06;50.62
11017;BME280;54687;50.800;6.772;2023-04-01T12:20:22;60948.28;;;-144.06;50.34
11017;BME280;54687;50.800;6.772;2023-04-01T12:22:59;60954.56;;;-144.06;50.45
11017;BME280;54687;50.800;6.772;2023-04-01T12:28:43;60937.78;;;-144.06;50.89
11017;BME280;54687;50.800;6.772;2023-04-01T12:31:27;60916.84;;;-144.06;49.69
11017;BME280;54687;50.800;6.772;2023-04-01T12:37:00;60912.63;;;-144.06;50.03
11017;BME280;54687;50.800;6.772;2023-04-01T12:39:55;60939.88;;;-144.06;49.86
11017;BME280;54687;50.800;6.772;2023-04-01T12:42:36;60958.75;;;-144.06;49.34
11017;BME280;54687;50.800;6.772;2023-04-01T12:45:25;60931.50;;;-144.06;50.25
11017;BME280;54687;50.800;6.772;2023-04-01T12:51:15;60941.97;;;-144.06;50.11
11017;BME280;54687;50.800;6.772;2023-04-01T12:56:59;60921.03;;;-144.06;49.50
11017;BME280;54687;50.800;6.772;2023-04-01T12:59:49;60904.25;;;-144.06;49.72
11017;BME280;54687;50.800;6.772;2023-04-01T13:02:30;60929.41;;;-144.06;49.02
11017;BME280;54687;50.800;6.772;2023-04-01T13:05:19;60918.94;;;-144.06;48.80
11017;BME280;54687;50.800;6.772;2023-04-01T13:07:58;60893.78;;;-144.06;49.47
11017;BME280;54687;50.800;6.772;2023-04-01T13:10:49;60881.19;;;-144.06;48.33
11017;BME280;54687;50.800;6.772;2023-04-01T13:13:50;60929.41;;;-144.06;48.81
11017;BME280;54687;50.800;6.772;2023-04-01T13:16:24;60923.13;;;-144.06;49.11
11017;BME280;54687;50.800;6.772;2023-04-01T13:18:57;60887.47;;;-144.06;47.98
11017;BME280;54687;50.800;6.772;2023-04-01T13:21:41;60925.22;;;-144.06;47.13
11017;BME280;54687;50.800;6.772;2023-04-01T13:24:24;60864.44;;;-144.06;47.50
11017;BME280;54687;50.800;6.772;2023-04-01T13:26:59;60908.44;;;-144.06;48.64
11017;BME280;54687;50.800;6.772;2023-04-01T13:29:33;60891.69;;;-144.06;48.50
11017;BME280;54687;50.800;6.772;2023-04-01T13:32:16;60941.97;;;-144.06;49.08
11017;BME280;54687;50.800;6.772;2023-04-01T13:34:56;60881.19;;;-144.06;48.75
11017;BME280;54687;50.800;6.772;2023-04-01T13:37:37;60887.47;;;-144.06;48.46
11017;BME280;54687;50.800;6.772;2023-04-01T13:40:23;60908.44;;;-144.06;48.35
11017;BME280;54687;50.800;6.772;2023-04-01T13:42:56;60921.03;;;-144.06;48.02
11017;BME280;54687;50.800;6.772;2023-04-01T13:45:29;60927.31;;;-144.06;49.52
11017;BME280;54687;50.800;6.772;2023-04-01T13:48:24;60891.69;;;-144.06;49.47
11017;BME280;54687;50.800;6.772;2023-04-01T13:51:11;60914.72;;;-144.06;49.85
11017;BME280;54687;50.800;6.772;2023-04-01T13:56:38;60912.63;;;-144.06;49.22
11017;BME280;54687;50.800;6.772;2023-04-01T13:59:36;60941.97;;;-144.06;48.36
11017;BME280;54687;50.800;6.772;2023-04-01T14:02:27;60879.09;;;-144.06;48.36
11017;BME280;54687;50.800;6.772;2023-04-01T14:05:12;60931.50;;;-144.06;48.18
11017;BME280;54687;50.800;6.772;2023-04-01T14:07:51;60883.28;;;-144.06;48.86
11017;BME280;54687;50.800;6.772;2023-04-01T14:10:29;60933.59;;;-144.06;49.59
11017;BME280;54687;50.800;6.772;2023-04-01T14:13:01;60887.47;;;-144.06;49.31
11017;BME280;54687;50.800;6.772;2023-04-01T14:15:41;60923.13;;;-144.06;50.01
11017;BME280;54687;50.800;6.772;2023-04-01T14:18:29;60950.38;;;-144.06;49.74
11017;BME280;54687;50.800;6.772;2023-04-01T14:21:11;60929.41;;;-144.06;49.68
11017;BME280;54687;50.800;6.772;2023-04-01T14:23:54;60927.31;;;-144.06;49.11
11017;BME280;54687;50.800;6.772;2023-04-01T14:26:38;60881.19;;;-144.06;48.13